createdAt,value
2023-02-02T00:01:29.522Z,0.47
2023-02-02T00:03:58.177Z,0.03
2023-02-02T00:06:27.690Z,0.30
2023-02-02T00:08:57.487Z,0.20
2023-02-02T00:11:26.129Z,0.43
2023-02-02T00:13:57.202Z,0.87
2023-02-02T00:16:29.710Z,0.10
2023-02-02T00:18:59.133Z,2.13
2023-02-02T00:21:27.983Z,0.40
2023-02-02T00:23:56.154Z,0.20
2023-02-02T00:26:24.975Z,0.20
2023-02-02T00:28:53.260Z,0.10
2023-02-02T00:31:21.449Z,0.10
2023-02-02T00:33:50.469Z,0.67
2023-02-02T00:36:19.406Z,0.10
2023-02-02T00:38:48.285Z,0.63
2023-02-02T00:41:16.973Z,0.80
2023-02-02T00:43:45.307Z,0.60
2023-02-02T00:46:15.039Z,0.37
2023-02-02T00:48:43.139Z,0.20
2023-02-02T00:51:11.421Z,0.40
2023-02-02T00:53:39.670Z,0.20
2023-02-02T00:56:07.827Z,0.10
2023-02-02T00:58:35.957Z,0.30
2023-02-02T01:01:04.111Z,0.40
2023-02-02T01:03:32.270Z,0.63
2023-02-02T01:06:00.391Z,0.87
2023-02-02T01:08:28.541Z,0.67
2023-02-02T01:10:58.163Z,0.87
2023-02-02T01:13:27.870Z,0.13
2023-02-02T01:15:57.571Z,0.67
2023-02-02T01:18:25.730Z,1.60
2023-02-02T01:21:02.484Z,0.20
2023-02-02T01:23:31.135Z,0.20
2023-02-02T01:25:59.982Z,0.10
2023-02-02T01:28:28.689Z,0.10
2023-02-02T01:30:57.318Z,1.50
2023-02-02T01:33:25.648Z,0.93
2023-02-02T01:35:55.403Z,0.83
2023-02-02T01:38:24.453Z,0.47
2023-02-02T01:40:53.783Z,0.37
2023-02-02T01:43:25.985Z,0.57
2023-02-02T01:45:54.703Z,0.60
2023-02-02T01:48:27.102Z,1.80
2023-02-02T01:50:56.733Z,0.30
2023-02-02T01:53:24.993Z,0.67
2023-02-02T01:55:53.166Z,0.30
2023-02-02T01:58:22.938Z,0.67
2023-02-02T02:00:51.335Z,1.37
2023-02-02T02:03:21.231Z,0.40
2023-02-02T02:05:50.992Z,0.30
2023-02-02T02:08:20.761Z,0.70
2023-02-02T02:10:48.947Z,0.83
2023-02-02T02:13:17.413Z,1.40
2023-02-02T02:15:54.246Z,0.13
2023-02-02T02:18:23.942Z,1.20
2023-02-02T02:21:14.547Z,0.50
2023-02-02T02:24:02.068Z,0.30
2023-02-02T02:26:50.006Z,1.47
2023-02-02T02:29:36.875Z,0.97
2023-02-02T02:32:24.765Z,1.37
2023-02-02T02:34:54.841Z,0.83
2023-02-02T02:37:41.132Z,0.73
2023-02-02T02:40:10.771Z,2.03
2023-02-02T02:42:40.419Z,0.20
2023-02-02T02:45:09.520Z,1.60
2023-02-02T02:47:38.335Z,1.20
2023-02-02T02:50:06.674Z,1.27
2023-02-02T02:52:35.628Z,0.73
2023-02-02T02:55:05.260Z,0.30
2023-02-02T02:57:43.999Z,0.13
2023-02-02T03:00:25.774Z,0.97
2023-02-02T03:03:12.186Z,1.90
2023-02-02T03:05:58.404Z,1.67
2023-02-02T03:08:28.120Z,0.23
2023-02-02T03:10:57.361Z,0.10
2023-02-02T03:13:26.254Z,0.30
2023-02-02T03:15:55.025Z,2.20
2023-02-02T03:18:25.054Z,0.87
2023-02-02T03:20:53.223Z,2.10
2023-02-02T03:23:21.594Z,0.80
2023-02-02T03:25:49.840Z,0.83
2023-02-02T03:28:18.579Z,0.50
2023-02-02T03:30:47.910Z,0.17
2023-02-02T03:33:16.518Z,2.30
2023-02-02T03:35:44.926Z,2.07
2023-02-02T03:38:13.112Z,2.00
2023-02-02T03:40:41.218Z,1.93
2023-02-02T03:43:09.398Z,0.20
2023-02-02T03:45:39.197Z,2.27
2023-02-02T03:48:07.401Z,0.10
2023-02-02T03:50:35.573Z,0.40
2023-02-02T03:53:04.797Z,2.00
2023-02-02T03:55:32.955Z,1.07
2023-02-02T03:58:01.077Z,0.53
2023-02-02T04:00:29.563Z,0.37
2023-02-02T04:02:58.121Z,2.37
2023-02-02T04:05:26.866Z,0.57
2023-02-02T04:07:55.121Z,1.10
2023-02-02T04:10:23.290Z,0.20
2023-02-02T04:12:51.429Z,0.70
2023-02-02T04:15:19.526Z,0.10
2023-02-02T04:17:47.640Z,1.27
2023-02-02T04:20:15.815Z,0.30
2023-02-02T04:22:44.017Z,2.00
2023-02-02T04:25:12.130Z,0.30
2023-02-02T04:27:40.258Z,0.23
2023-02-02T04:30:08.849Z,0.53
2023-02-02T04:32:36.970Z,0.93
2023-02-02T04:35:05.329Z,1.20
2023-02-02T04:37:33.724Z,0.50
2023-02-02T04:40:01.980Z,0.23
2023-02-02T04:42:31.952Z,1.30
2023-02-02T04:45:00.136Z,0.10
2023-02-02T04:47:28.312Z,1.13
2023-02-02T04:49:56.494Z,0.30
2023-02-02T04:52:25.068Z,0.20
2023-02-02T04:54:53.572Z,0.20
2023-02-02T04:57:21.754Z,0.20
2023-02-02T04:59:49.941Z,0.00
2023-02-02T05:02:18.243Z,0.10
2023-02-02T05:04:46.953Z,0.30
2023-02-02T05:07:15.236Z,0.00
2023-02-02T05:09:43.441Z,0.37
2023-02-02T05:12:11.578Z,0.10
2023-02-02T05:14:39.763Z,0.20
2023-02-02T05:17:07.973Z,0.30
2023-02-02T05:19:36.098Z,0.10
2023-02-02T05:22:04.284Z,0.00
2023-02-02T05:24:32.394Z,0.30
2023-02-02T05:27:00.625Z,1.23
2023-02-02T05:29:29.320Z,0.83
2023-02-02T05:31:58.166Z,0.63
2023-02-02T05:34:26.362Z,0.63
2023-02-02T05:36:54.550Z,0.10
2023-02-02T05:39:22.704Z,0.70
2023-02-02T05:41:50.856Z,0.20
2023-02-02T05:44:18.954Z,1.20
2023-02-02T05:46:47.253Z,1.80
2023-02-02T05:49:15.496Z,1.70
2023-02-02T05:51:45.565Z,1.33
2023-02-02T05:54:15.435Z,2.87
2023-02-02T05:56:43.559Z,3.20
2023-02-02T05:59:11.738Z,1.87
2023-02-02T06:01:39.911Z,0.57
2023-02-02T06:04:08.112Z,1.77
2023-02-02T06:06:37.712Z,1.13
2023-02-02T06:09:06.759Z,0.57
2023-02-02T06:11:35.302Z,1.37
2023-02-02T06:14:03.914Z,3.43
2023-02-02T06:16:32.084Z,2.43
2023-02-02T06:19:00.262Z,2.53
2023-02-02T06:21:30.016Z,5.60
2023-02-02T06:23:59.248Z,2.27
2023-02-02T06:26:27.418Z,1.67
2023-02-02T06:28:55.631Z,2.23
2023-02-02T06:31:24.158Z,4.20
2023-02-02T06:33:56.548Z,3.70
2023-02-02T06:36:25.886Z,1.40
2023-02-02T06:38:54.862Z,3.40
2023-02-02T06:41:23.302Z,0.80
2023-02-02T06:43:52.269Z,4.03
2023-02-02T06:46:20.420Z,2.30
2023-02-02T06:48:48.627Z,1.80
2023-02-02T06:51:16.779Z,2.23
2023-02-02T06:53:44.978Z,2.83
2023-02-02T06:56:13.600Z,1.90
2023-02-02T06:58:41.890Z,0.90
2023-02-02T07:01:11.681Z,2.57
2023-02-02T07:03:40.284Z,4.33
2023-02-02T07:06:12.932Z,1.77
2023-02-02T07:08:41.189Z,0.43
2023-02-02T07:11:15.342Z,2.80
2023-02-02T07:13:39.797Z,1.37
2023-02-02T07:16:10.017Z,3.33
2023-02-02T07:18:38.220Z,3.17
2023-02-02T07:21:07.126Z,4.70
2023-02-02T07:23:35.396Z,2.67
2023-02-02T07:26:07.712Z,1.97
2023-02-02T07:28:36.272Z,2.43
2023-02-02T07:31:15.226Z,2.87
2023-02-02T07:33:44.141Z,1.90
2023-02-02T07:36:13.072Z,0.77
2023-02-02T07:38:41.299Z,3.70
2023-02-02T07:41:09.462Z,1.03
2023-02-02T07:43:37.704Z,5.27
2023-02-02T07:46:08.047Z,0.93
2023-02-02T07:48:36.752Z,1.20
2023-02-02T07:51:06.256Z,1.03
2023-02-02T07:53:34.883Z,2.17
2023-02-02T07:56:10.290Z,0.93
2023-02-02T07:58:38.501Z,2.73
2023-02-02T08:01:08.333Z,2.90
2023-02-02T08:03:37.134Z,5.20
2023-02-02T08:06:12.587Z,0.20
2023-02-02T08:08:40.843Z,1.33
2023-02-02T08:11:10.123Z,2.90
2023-02-02T08:13:39.170Z,2.87
2023-02-02T08:16:07.826Z,2.87
2023-02-02T08:18:36.446Z,0.87
2023-02-02T08:21:05.433Z,2.67
2023-02-02T08:23:33.529Z,1.87
2023-02-02T08:26:18.130Z,0.70
2023-02-02T08:28:47.527Z,1.03
2023-02-02T08:31:19.966Z,2.60
2023-02-02T08:33:48.187Z,2.20
2023-02-02T08:36:17.899Z,0.70
2023-02-02T08:38:46.696Z,3.00
2023-02-02T08:41:16.296Z,2.43
2023-02-02T08:43:44.630Z,2.70
2023-02-02T08:46:14.609Z,2.50
2023-02-02T08:48:43.336Z,2.37
2023-02-02T08:51:13.006Z,3.10
2023-02-02T08:53:41.741Z,1.67
2023-02-02T08:56:14.027Z,1.57
2023-02-02T08:58:43.694Z,1.40
2023-02-02T09:01:16.557Z,2.97
2023-02-02T09:03:45.089Z,3.90
2023-02-02T09:06:14.777Z,1.03
2023-02-02T09:08:43.142Z,1.73
2023-02-02T09:11:12.650Z,2.67
2023-02-02T09:13:41.683Z,3.60
2023-02-02T09:16:11.191Z,1.30
2023-02-02T09:18:39.808Z,1.90
2023-02-02T09:21:08.649Z,1.90
2023-02-02T09:23:37.636Z,2.37
2023-02-02T09:26:19.249Z,1.60
2023-02-02T09:28:49.165Z,2.23
2023-02-02T09:31:18.353Z,1.33
2023-02-02T09:33:46.537Z,1.50
2023-02-02T09:36:16.119Z,1.03
2023-02-02T09:38:44.777Z,0.77
2023-02-02T09:41:29.387Z,1.50
2023-02-02T09:43:59.100Z,0.77
2023-02-02T09:46:31.419Z,3.00
2023-02-02T09:49:04.169Z,2.57
2023-02-02T09:51:36.793Z,1.47
2023-02-02T09:54:09.498Z,1.57
2023-02-02T09:56:43.268Z,1.00
2023-02-02T09:59:19.918Z,2.50
2023-02-02T10:01:45.511Z,1.70
2023-02-02T10:04:24.309Z,0.47
2023-02-02T10:06:54.160Z,1.90
2023-02-02T10:09:43.393Z,2.10
2023-02-02T10:12:15.767Z,0.57
2023-02-02T10:14:46.079Z,0.70
2023-02-02T10:17:30.923Z,1.80
2023-02-02T10:20:01.018Z,1.73
2023-02-02T10:22:30.282Z,4.10
2023-02-02T10:24:58.535Z,1.17
2023-02-02T10:27:28.249Z,0.87
2023-02-02T10:29:58.257Z,1.53
2023-02-02T10:32:30.887Z,0.20
2023-02-02T10:35:17.067Z,1.43
2023-02-02T10:38:03.122Z,1.60
2023-02-02T10:40:38.548Z,1.40
2023-02-02T10:43:26.177Z,1.43
2023-02-02T10:45:55.189Z,1.97
2023-02-02T10:48:24.945Z,1.70
2023-02-02T10:50:55.392Z,0.93
2023-02-02T10:53:25.708Z,1.73
2023-02-02T10:55:55.856Z,2.07
2023-02-02T10:58:25.564Z,0.90
2023-02-02T11:00:55.212Z,2.90
2023-02-02T11:03:24.842Z,1.90
2023-02-02T11:06:11.260Z,1.27
2023-02-02T11:08:47.273Z,0.70
2023-02-02T11:11:19.580Z,0.43
2023-02-02T11:13:49.997Z,1.27
2023-02-02T11:16:20.078Z,1.47
2023-02-02T11:18:48.407Z,1.60
2023-02-02T11:21:21.079Z,3.67
2023-02-02T11:23:53.393Z,1.90
2023-02-02T11:26:22.599Z,1.90
2023-02-02T11:28:52.470Z,0.77
2023-02-02T11:31:33.760Z,1.37
2023-02-02T11:34:20.761Z,1.60
2023-02-02T11:36:59.722Z,1.80
2023-02-02T11:39:28.062Z,1.63
2023-02-02T11:41:59.998Z,2.30
2023-02-02T11:44:29.204Z,1.20
2023-02-02T11:46:57.599Z,1.60
2023-02-02T11:49:25.919Z,1.03
2023-02-02T11:51:58.663Z,2.33
2023-02-02T11:54:30.614Z,1.47
2023-02-02T11:57:00.115Z,2.10
2023-02-02T11:59:32.788Z,3.13
2023-02-02T12:02:14.747Z,3.33
2023-02-02T12:04:42.909Z,0.40
2023-02-02T12:07:21.545Z,3.20
2023-02-02T12:09:50.212Z,3.77
2023-02-02T12:12:32.067Z,0.40
2023-02-02T12:15:01.811Z,1.03
2023-02-02T12:17:39.074Z,2.00
2023-02-02T12:20:11.931Z,2.30
2023-02-02T12:22:44.256Z,2.37
2023-02-02T12:25:18.779Z,1.60
2023-02-02T12:27:48.529Z,1.47
2023-02-02T12:30:35.040Z,2.27
2023-02-02T12:33:07.376Z,3.40
2023-02-02T12:35:43.142Z,1.03
2023-02-02T12:38:18.752Z,2.80
2023-02-02T12:41:06.379Z,0.50
2023-02-02T12:43:42.473Z,2.20
2023-02-02T12:46:12.384Z,1.90
2023-02-02T12:48:44.794Z,0.87
2023-02-02T12:51:26.405Z,2.83
2023-02-02T12:54:34.624Z,0.80
2023-02-02T12:56:45.737Z,0.93
2023-02-02T12:59:24.150Z,1.17
2023-02-02T13:02:05.718Z,1.53
2023-02-02T13:04:35.435Z,0.47
2023-02-02T13:07:13.906Z,1.77
2023-02-02T13:09:43.562Z,1.73
2023-02-02T13:12:13.535Z,2.43
2023-02-02T13:14:46.066Z,2.23
2023-02-02T13:17:21.806Z,5.20
2023-02-02T13:19:53.690Z,4.00
2023-02-02T13:22:29.423Z,1.50
2023-02-02T13:25:00.200Z,2.27
2023-02-02T13:27:29.975Z,0.90
2023-02-02T13:29:59.803Z,1.90
2023-02-02T13:32:35.476Z,4.00
2023-02-02T13:35:08.514Z,1.90
2023-02-02T13:37:38.225Z,3.67
2023-02-02T13:40:16.977Z,2.77
2023-02-02T13:42:46.622Z,2.13
2023-02-02T13:45:26.088Z,1.53
2023-02-02T13:47:56.030Z,2.10
2023-02-02T13:50:27.032Z,1.03
2023-02-02T13:53:02.395Z,3.93
2023-02-02T13:55:32.524Z,3.07
2023-02-02T13:58:17.144Z,2.30
2023-02-02T14:00:47.604Z,2.93
2023-02-02T14:03:35.410Z,1.37
2023-02-02T14:06:20.582Z,2.77
2023-02-02T14:08:50.406Z,3.57
2023-02-02T14:11:20.050Z,1.47
2023-02-02T14:14:07.374Z,1.80
2023-02-02T14:16:40.070Z,2.50
2023-02-02T14:19:26.502Z,2.73
2023-02-02T14:22:02.325Z,2.60
2023-02-02T14:24:32.067Z,2.43
2023-02-02T14:27:01.827Z,2.67
2023-02-02T14:29:39.176Z,3.70
2023-02-02T14:32:10.562Z,3.00
2023-02-02T14:34:42.679Z,3.20
2023-02-02T14:37:27.513Z,3.83
2023-02-02T14:40:09.379Z,4.00
2023-02-02T14:43:13.526Z,1.60
2023-02-02T14:45:48.209Z,2.53
2023-02-02T14:48:23.247Z,4.67
2023-02-02T14:50:53.041Z,2.33
2023-02-02T14:53:31.598Z,4.60
2023-02-02T14:56:04.320Z,0.63
2023-02-02T14:58:34.346Z,2.27
2023-02-02T15:01:13.278Z,4.50
2023-02-02T15:03:46.587Z,4.37
2023-02-02T15:06:26.636Z,3.07
2023-02-02T15:09:13.270Z,2.57
2023-02-02T15:12:09.413Z,2.73
2023-02-02T15:14:45.229Z,1.77
2023-02-02T15:17:19.654Z,4.90
2023-02-02T15:19:49.330Z,4.30
2023-02-02T15:22:25.036Z,1.93
2023-02-02T15:24:54.080Z,0.83
2023-02-02T15:27:24.986Z,2.27
2023-02-02T15:29:54.661Z,3.00
2023-02-02T15:32:24.477Z,2.63
2023-02-02T15:34:54.242Z,3.40
2023-02-02T15:37:23.920Z,3.47
2023-02-02T15:39:53.651Z,2.60
2023-02-02T15:42:41.283Z,2.23
2023-02-02T15:45:10.990Z,4.30
2023-02-02T15:47:41.919Z,2.70
2023-02-02T15:50:19.764Z,5.30
2023-02-02T15:52:50.057Z,3.33
2023-02-02T15:55:25.943Z,3.13
2023-02-02T15:57:55.048Z,2.43
2023-02-02T16:00:27.607Z,2.97
2023-02-02T16:03:06.545Z,3.80
2023-02-02T16:05:39.174Z,1.27
2023-02-02T16:08:21.032Z,1.73
2023-02-02T16:10:49.391Z,3.93
2023-02-02T16:13:24.889Z,3.83
2023-02-02T16:15:59.571Z,1.53
2023-02-02T16:18:27.887Z,2.07
2023-02-02T16:20:56.412Z,3.20
2023-02-02T16:23:26.459Z,1.20
2023-02-02T16:25:55.763Z,1.13
2023-02-02T16:28:24.272Z,0.20
2023-02-02T16:30:53.265Z,3.27
2023-02-02T16:33:31.791Z,1.17
2023-02-02T16:36:00.052Z,3.33
2023-02-02T16:38:33.027Z,2.83
2023-02-02T16:41:05.334Z,1.63
2023-02-02T16:43:34.179Z,2.83
2023-02-02T16:46:18.432Z,2.87
2023-02-02T16:48:48.518Z,1.93
2023-02-02T16:51:18.695Z,1.83
2023-02-02T16:53:47.869Z,2.70
2023-02-02T16:56:29.763Z,4.17
2023-02-02T16:58:59.665Z,2.03
2023-02-02T17:01:38.315Z,0.20
2023-02-02T17:04:08.000Z,1.47
2023-02-02T17:06:50.486Z,2.27
2023-02-02T17:09:16.169Z,4.70
2023-02-02T17:12:04.229Z,2.27
2023-02-02T17:14:35.815Z,3.00
2023-02-02T17:17:05.379Z,3.53
2023-02-02T17:19:33.754Z,1.20
2023-02-02T17:22:04.990Z,0.50
2023-02-02T17:24:33.207Z,0.40
2023-02-02T17:27:03.191Z,4.07
2023-02-02T17:29:31.466Z,3.30
2023-02-02T17:31:59.638Z,0.87
2023-02-02T17:34:28.626Z,3.00
2023-02-02T17:36:56.811Z,0.80
2023-02-02T17:39:24.989Z,3.77
2023-02-02T17:41:53.272Z,5.53
2023-02-02T17:44:21.483Z,2.43
2023-02-02T17:46:49.650Z,1.17
2023-02-02T17:49:17.730Z,4.57
2023-02-02T17:51:46.285Z,5.23
2023-02-02T17:54:15.306Z,4.17
2023-02-02T17:56:43.917Z,1.33
2023-02-02T17:59:12.095Z,2.33
2023-02-02T18:01:41.703Z,1.90
2023-02-02T18:04:11.461Z,6.43
2023-02-02T18:06:39.928Z,5.30
2023-02-02T18:09:08.201Z,1.70
2023-02-02T18:11:36.475Z,2.13
2023-02-02T18:14:04.641Z,2.73
2023-02-02T18:16:32.926Z,4.83
2023-02-02T18:19:02.467Z,4.50
2023-02-02T18:21:32.156Z,4.00
2023-02-02T18:24:00.324Z,4.27
2023-02-02T18:26:28.483Z,2.70
2023-02-02T18:28:56.663Z,2.43
2023-02-02T18:31:24.987Z,3.30
2023-02-02T18:33:54.172Z,4.53
2023-02-02T18:36:23.469Z,4.13
2023-02-02T18:38:53.589Z,4.53
2023-02-02T18:41:21.766Z,4.00
2023-02-02T18:43:51.580Z,2.77
2023-02-02T18:46:19.884Z,0.30
2023-02-02T18:48:48.067Z,3.27
2023-02-02T18:51:17.911Z,4.10
2023-02-02T18:53:47.071Z,3.23
2023-02-02T18:56:15.655Z,2.10
2023-02-02T18:58:43.928Z,2.43
2023-02-02T19:01:13.657Z,0.90
2023-02-02T19:03:42.255Z,0.77
2023-02-02T19:06:28.459Z,1.50
2023-02-02T19:08:56.868Z,2.83
2023-02-02T19:11:27.275Z,2.57
2023-02-02T19:13:56.054Z,3.40
2023-02-02T19:16:28.698Z,0.70
2023-02-02T19:18:57.898Z,0.87
2023-02-02T19:21:27.670Z,1.53
2023-02-02T19:23:55.914Z,1.03
2023-02-02T19:26:25.390Z,1.83
2023-02-02T19:28:54.366Z,1.40
2023-02-02T19:31:23.851Z,0.43
2023-02-02T19:33:52.979Z,2.53
2023-02-02T19:36:24.929Z,1.57
2023-02-02T19:38:54.720Z,1.63
2023-02-02T19:41:24.499Z,2.33
2023-02-02T19:43:54.575Z,2.50
2023-02-02T19:46:24.309Z,2.60
2023-02-02T19:48:54.442Z,1.60
2023-02-02T19:51:30.020Z,2.47
2023-02-02T19:53:59.786Z,2.33
2023-02-02T19:56:29.322Z,2.50
2023-02-02T19:58:57.566Z,3.23
2023-02-02T20:01:27.237Z,2.17
2023-02-02T20:03:55.525Z,1.87
2023-02-02T20:06:25.051Z,5.17
2023-02-02T20:08:53.845Z,5.87
2023-02-02T20:11:31.134Z,4.20
2023-02-02T20:14:00.789Z,4.47
2023-02-02T20:16:30.579Z,5.00
2023-02-02T20:18:59.262Z,3.97
2023-02-02T20:21:28.974Z,1.77
2023-02-02T20:23:57.226Z,4.47
2023-02-02T20:26:27.559Z,2.87
2023-02-02T20:28:57.280Z,2.53
2023-02-02T20:31:27.005Z,2.80
2023-02-02T20:33:57.601Z,4.47
2023-02-02T20:36:33.112Z,2.63
2023-02-02T20:39:04.281Z,5.47
2023-02-02T20:41:32.682Z,3.70
2023-02-02T20:44:01.083Z,4.57
2023-02-02T20:46:29.483Z,4.67
2023-02-02T20:48:57.658Z,6.53
2023-02-02T20:51:26.749Z,5.77
2023-02-02T20:53:55.600Z,3.40
2023-02-02T20:56:24.036Z,3.23
2023-02-02T20:58:52.489Z,4.67
2023-02-02T21:01:22.505Z,1.37
2023-02-02T21:03:50.659Z,3.10
2023-02-02T21:06:19.228Z,4.30
2023-02-02T21:08:49.044Z,5.53
2023-02-02T21:11:17.467Z,5.97
2023-02-02T21:13:46.063Z,4.10
2023-02-02T21:16:14.249Z,3.23
2023-02-02T21:18:44.988Z,6.23
2023-02-02T21:21:15.438Z,6.13
2023-02-02T21:23:45.623Z,3.23
2023-02-02T21:26:14.301Z,1.33
2023-02-02T21:28:42.485Z,4.90
2023-02-02T21:31:12.251Z,6.43
2023-02-02T21:33:44.375Z,10.07
2023-02-02T21:36:30.721Z,7.37
2023-02-02T21:39:06.807Z,7.70
2023-02-02T21:41:34.977Z,5.73
2023-02-02T21:44:03.130Z,3.83
2023-02-02T21:46:33.346Z,5.97
2023-02-02T21:49:01.573Z,3.97
2023-02-02T21:51:31.282Z,6.67
2023-02-02T21:53:59.784Z,7.90
2023-02-02T21:56:28.767Z,11.00
2023-02-02T21:59:00.812Z,3.37
2023-02-02T22:01:36.849Z,3.10
2023-02-02T22:04:06.520Z,4.37
2023-02-02T22:06:36.092Z,6.30
2023-02-02T22:09:14.522Z,1.97
2023-02-02T22:11:45.361Z,3.97
2023-02-02T22:14:15.110Z,2.97
2023-02-02T22:16:45.040Z,5.60
2023-02-02T22:19:20.691Z,6.67
2023-02-02T22:21:48.853Z,6.67
2023-02-02T22:24:16.950Z,3.97
2023-02-02T22:26:45.067Z,3.23
2023-02-02T22:29:15.123Z,6.43
2023-02-02T22:31:43.323Z,6.97
2023-02-02T22:34:11.580Z,5.07
2023-02-02T22:36:39.734Z,6.63
2023-02-02T22:39:07.906Z,3.10
2023-02-02T22:41:36.084Z,3.87
2023-02-02T22:44:04.363Z,3.20
2023-02-02T22:46:32.632Z,6.37
2023-02-02T22:49:00.769Z,4.83
2023-02-02T22:51:28.941Z,3.97
2023-02-02T22:53:57.060Z,5.03
2023-02-02T22:56:26.021Z,4.23
2023-02-02T22:58:54.216Z,7.50
2023-02-02T23:01:22.696Z,4.17
2023-02-02T23:03:50.929Z,4.93
2023-02-02T23:06:19.151Z,5.60
2023-02-02T23:08:47.251Z,4.53
2023-02-02T23:11:15.422Z,7.37
2023-02-02T23:13:43.643Z,3.07
2023-02-02T23:16:11.984Z,6.00
2023-02-02T23:18:40.150Z,3.73
2023-02-02T23:21:08.269Z,7.53
2023-02-02T23:23:36.397Z,5.23
2023-02-02T23:26:04.667Z,3.17
2023-02-02T23:28:32.762Z,6.47
2023-02-02T23:31:01.916Z,1.97
2023-02-02T23:33:30.910Z,6.00
2023-02-02T23:35:59.085Z,3.50
2023-02-02T23:38:27.347Z,4.30
2023-02-02T23:40:55.773Z,6.60
2023-02-02T23:43:23.890Z,5.63
2023-02-02T23:45:51.984Z,5.90
2023-02-02T23:48:20.287Z,2.33
2023-02-02T23:50:48.440Z,3.60
2023-02-02T23:53:16.608Z,1.90
2023-02-02T23:55:45.642Z,3.77
2023-02-02T23:58:14.167Z,1.17
